Airfield :
LOGIN :

Register | Disclaimer

   EN    FR    IT 

 










Legend :    VFR   Marginal VFR   IFR   Intensive IFR   Very Intensive IFR
Visi :
Ceiling :
>= 8 km
>= 3000ft
5 to 8 km
1000 to 3000 ft
1500m to 5 km
500 to 1000 ft
800 to 1500m
200 to 500 ft
< 800m
< 200 ft
Symbols :   Thunderstorms  Fog  Heavy snow  Heavy precipitations  Wind > 20 kt
SIGMETs :     Misc.  Thunderstorms  Icing  Turbulence  Mountain Waves  Volcanic Ashes






- Airport Elevation : 2945 ft
- IATA code : RGS


LEBG - Burgos

CURRENT METAR :
  • 071930Z AUTO 02003KT 340V050 CAVOK 15/08 Q1022

EXPIRED METARs :
  • 071900Z AUTO 00000KT CAVOK 16/08 Q1022
  • 071830Z AUTO 07004KT CAVOK 17/07 Q1021
  • 071800Z 08004KT 9999 FEW060 18/07 Q1021
  • 071730Z 07006KT 9999 FEW060 19/07 Q1021
  • 071700Z 07009KT 9999 FEW060 21/07 Q1021

TAF TAF LEBG
Valid from the 07 at 15:00 until the 08 at 15:00 UTC


071400Z 0715/0815 VRB05KT 9999 FEW050 TX24/0715Z TN08/0806Z
PROB30
TEMPO 0715/0718 FEW040TCU
BECMG 0717/0719 05010KT
TEMPO 0722/0812 BKN006
PROB30
TEMPO 0804/0809 0400 BCFG BKN002
PROB30
TEMPO 0804/0812 DZ



MET'MAP, your aeronautical weather chart ! - Copyright ORBIFLY December 2007 - Disclaimer

ORBIFLY MET'MAP TEAM :

Programming & Development : Alexandra Zaïnal
Original concept : Baudouin d'Aumeries
Technical & hardware support : Manuel Goepfert
Assistance : Marc-Olivier Méhu




SOURCES & CREDITS :

   NOAA